Time;durP1;ratioP1;P1;durP2;ratioP2;P2;SDS_P1;SDS_P2;PMS_P1;PMS_P2;Temp;Humidity;BMP_temperature;BMP_pressure;BME280_temperature;BME280_humidity;BME280_pressure;Samples;Min_cycle;Max_cycle;Signal;HPM_P1;HPM_P2
2021/03/11 00:01:30;;;;;;;38.77;19.00;;;;;;;;;;5070653;28;20044;-57
2021/03/11 00:03:55;;;;;;;39.20;16.30;;;;;;;;;;5071811;28;20503;-55
2021/03/11 00:06:21;;;;;;;39.80;16.83;;;;;;;;;;5072534;28;20025;-57
2021/03/11 00:08:46;;;;;;;34.80;16.33;;;;;;;;;;5072111;28;20512;-56
2021/03/11 00:11:11;;;;;;;36.00;16.73;;;;;;;;;;5071292;28;20028;-56
2021/03/11 00:13:37;;;;;;;34.83;16.47;;;;;;;;;;5070961;28;20043;-56
2021/03/11 00:16:02;;;;;;;31.80;15.90;;;;;;;;;;5072048;28;20024;-58
2021/03/11 00:18:27;;;;;;;29.97;15.27;;;;;;;;;;5070599;28;20514;-57
2021/03/11 00:20:53;;;;;;;35.60;17.43;;;;;;;;;;5071222;28;20127;-58
2021/03/11 00:23:18;;;;;;;37.83;17.30;;;;;;;;;;5071514;28;20075;-58
2021/03/11 00:25:44;;;;;;;33.47;17.27;;;;;;;;;;5070874;28;20032;-58
2021/03/11 00:28:09;;;;;;;35.55;17.48;;;;;;;;;;5036716;28;20028;-58
2021/03/11 00:30:35;;;;;;;31.07;14.13;;;;;;;;;;5070446;28;20040;-57
2021/03/11 00:33:00;;;;;;;37.03;16.87;;;;;;;;;;5071299;28;20059;-57
2021/03/11 00:35:26;;;;;;;23.30;12.27;;;;;;;;;;5070674;28;20017;-57
2021/03/11 00:37:51;;;;;;;28.53;13.17;;;;;;;;;;5053005;28;20044;-58
2021/03/11 00:40:18;;;;;;;32.37;14.73;;;;;;;;;;5071125;28;20115;-57
2021/03/11 00:42:44;;;;;;;30.88;15.52;;;;;;;;;;5070573;28;20040;-57
2021/03/11 00:45:10;;;;;;;31.87;15.13;;;;;;;;;;5071149;28;20029;-57
2021/03/11 00:47:36;;;;;;;33.42;15.02;;;;;;;;;;5052134;28;20352;-57
2021/03/11 00:50:03;;;;;;;31.10;14.98;;;;;;;;;;5068251;28;20143;-58
2021/03/11 00:52:28;;;;;;;27.30;13.80;;;;;;;;;;5070510;28;20432;-58
2021/03/11 00:54:54;;;;;;;26.10;14.40;;;;;;;;;;5069731;28;20044;-57
2021/03/11 00:57:20;;;;;;;;;;;;;;;;;;5071502;28;20404;-58
2021/03/11 00:59:45;;;;;;;30.13;14.23;;;;;;;;;;5068987;28;19912;-58
2021/03/11 01:02:11;;;;;;;35.03;13.93;;;;;;;;;;5071001;28;20384;-58
2021/03/11 01:04:36;;;;;;;30.27;13.53;;;;;;;;;;5069043;28;20379;-57
2021/03/11 01:07:03;;;;;;;30.77;13.75;;;;;;;;;;5070840;28;20028;-57
2021/03/11 01:09:28;;;;;;;27.95;13.68;;;;;;;;;;5070284;28;20024;-58
2021/03/11 01:11:53;;;;;;;25.60;13.23;;;;;;;;;;5072879;28;20032;-58
2021/03/11 01:14:19;;;;;;;25.80;13.00;;;;;;;;;;5074138;28;20039;-56
2021/03/11 01:16:45;;;;;;;27.53;14.63;;;;;;;;;;5072218;28;20020;-56
2021/03/11 01:19:11;;;;;;;30.85;14.07;;;;;;;;;;5073006;28;20052;-58
2021/03/11 01:21:36;;;;;;;32.20;17.33;;;;;;;;;;5071838;28;20497;-58
2021/03/11 01:24:01;;;;;;;37.50;15.17;;;;;;;;;;5074088;28;20123;-57
2021/03/11 01:26:27;;;;;;;36.57;15.23;;;;;;;;;;5073778;28;20105;-57
2021/03/11 01:28:52;;;;;;;35.73;15.73;;;;;;;;;;5072667;28;20384;-58
2021/03/11 01:31:18;;;;;;;27.27;14.60;;;;;;;;;;5074200;28;20025;-58
2021/03/11 01:33:43;;;;;;;35.77;16.20;;;;;;;;;;5071877;28;20028;-58
2021/03/11 01:36:08;;;;;;;33.77;13.97;;;;;;;;;;5074221;28;20052;-58
2021/03/11 01:38:34;;;;;;;28.50;13.87;;;;;;;;;;5073539;28;20028;-56
2021/03/11 01:40:59;;;;;;;31.73;14.67;;;;;;;;;;5056002;28;20529;-58
2021/03/11 01:43:24;;;;;;;27.73;14.33;;;;;;;;;;5072652;28;20020;-58
2021/03/11 01:45:50;;;;;;;27.67;14.20;;;;;;;;;;5073519;28;20094;-57
2021/03/11 01:48:15;;;;;;;26.67;13.37;;;;;;;;;;5073571;28;20048;-58
2021/03/11 01:50:41;;;;;;;25.40;12.60;;;;;;;;;;5073032;28;20037;-58
2021/03/11 01:53:07;;;;;;;26.13;14.23;;;;;;;;;;5055651;28;20036;-58
2021/03/11 01:55:33;;;;;;;27.13;13.35;;;;;;;;;;5073183;28;20108;-57
2021/03/11 01:57:58;;;;;;;29.77;14.38;;;;;;;;;;5073740;28;20032;-57
2021/03/11 02:00:24;;;;;;;25.60;12.83;;;;;;;;;;5055668;28;20575;-58
2021/03/11 02:02:50;;;;;;;28.13;14.30;;;;;;;;;;5055347;28;20016;-57
2021/03/11 02:05:16;;;;;;;25.83;12.43;;;;;;;;;;5073683;28;20468;-57
2021/03/11 02:07:42;;;;;;;22.85;13.13;;;;;;;;;;5038245;28;20048;-56
2021/03/11 02:10:09;;;;;;;24.00;12.85;;;;;;;;;;5073180;28;20427;-57
2021/03/11 02:12:50;;;;;;;21.70;11.50;;;;;;;;;;5072721;28;20036;-56
2021/03/11 02:15:30;;;;;;;28.38;13.35;;;;;;;;;;5055436;28;20032;-57
2021/03/11 02:17:59;;;;;;;25.27;13.40;;;;;;;;;;5072962;28;20055;-57
2021/03/11 02:20:40;;;;;;;25.55;12.43;;;;;;;;;;5072965;28;20190;-57
2021/03/11 02:23:24;;;;;;;25.63;13.05;;;;;;;;;;5054666;28;20036;-58
2021/03/11 02:26:07;;;;;;;27.98;12.48;;;;;;;;;;5072415;28;20115;-57
2021/03/11 02:28:51;;;;;;;22.55;11.80;;;;;;;;;;5072474;28;20101;-57
2021/03/11 02:31:17;;;;;;;23.30;12.57;;;;;;;;;;5073045;28;20086;-58
2021/03/11 02:33:43;;;;;;;24.30;12.20;;;;;;;;;;5072620;28;20329;-57
2021/03/11 02:36:08;;;;;;;25.55;12.30;;;;;;;;;;5072791;28;20110;-57
2021/03/11 02:38:34;;;;;;;22.03;10.93;;;;;;;;;;5072761;28;20028;-59
2021/03/11 02:41:00;;;;;;;22.27;11.45;;;;;;;;;;5054935;28;20028;-55
2021/03/11 02:43:26;;;;;;;20.85;12.20;;;;;;;;;;5072855;28;20041;-56
2021/03/11 02:45:52;;;;;;;20.10;9.93;;;;;;;;;;5072411;28;20028;-56
2021/03/11 02:48:18;;;;;;;20.00;10.77;;;;;;;;;;5072684;28;20029;-58
2021/03/11 02:50:43;;;;;;;19.52;10.32;;;;;;;;;;5055423;28;20024;-56
2021/03/11 02:53:09;;;;;;;18.50;11.33;;;;;;;;;;5073730;28;20444;-58
2021/03/11 02:55:36;;;;;;;22.15;12.90;;;;;;;;;;5073203;28;20261;-57
2021/03/11 02:58:01;;;;;;;22.48;13.60;;;;;;;;;;5073540;28;20035;-63
2021/03/11 03:00:27;;;;;;;24.10;11.70;;;;;;;;;;5055041;28;20135;-58
2021/03/11 03:02:53;;;;;;;20.48;11.63;;;;;;;;;;5071698;28;20028;-58
2021/03/11 03:05:20;;;;;;;16.90;9.18;;;;;;;;;;5072951;28;20035;-58
2021/03/11 03:07:46;;;;;;;19.10;10.05;;;;;;;;;;5071584;28;20032;-57
2021/03/11 03:10:14;;;;;;;21.10;10.68;;;;;;;;;;5054305;28;20039;-58
2021/03/11 03:12:40;;;;;;;24.50;12.68;;;;;;;;;;5053959;28;20028;-57
2021/03/11 03:15:06;;;;;;;21.27;12.27;;;;;;;;;;5072190;28;20521;-57
2021/03/11 03:17:32;;;;;;;20.80;12.75;;;;;;;;;;5071889;28;20461;-58
2021/03/11 03:19:57;;;;;;;24.58;12.93;;;;;;;;;;5071349;28;20123;-59
2021/03/11 03:22:23;;;;;;;28.63;15.15;;;;;;;;;;5071735;28;20119;-60
2021/03/11 03:24:48;;;;;;;30.70;14.63;;;;;;;;;;5071815;28;20033;-59
2021/03/11 03:27:14;;;;;;;34.78;16.90;;;;;;;;;;5071998;28;20054;-59
2021/03/11 03:29:41;;;;;;;36.20;18.83;;;;;;;;;;5053308;28;20040;-60
2021/03/11 03:32:06;;;;;;;40.63;18.83;;;;;;;;;;5071686;28;20614;-58
2021/03/11 03:34:32;;;;;;;42.57;22.17;;;;;;;;;;5053194;28;20054;-57
2021/03/11 03:36:58;;;;;;;37.73;18.93;;;;;;;;;;5071243;28;20020;-60
2021/03/11 03:39:23;;;;;;;34.83;18.52;;;;;;;;;;5072019;28;20035;-56
2021/03/11 03:41:51;;;;;;;36.80;20.63;;;;;;;;;;5053205;28;20036;-57
2021/03/11 03:44:18;;;;;;;38.90;19.95;;;;;;;;;;5071541;28;20036;-58
2021/03/11 03:46:45;;;;;;;48.35;19.52;;;;;;;;;;5070756;28;20041;-58
2021/03/11 03:49:11;;;;;;;37.15;19.02;;;;;;;;;;5059649;28;20102;-58
2021/03/11 03:51:39;;;;;;;38.42;17.15;;;;;;;;;;5070349;28;20381;-57
2021/03/11 03:54:06;;;;;;;38.05;19.13;;;;;;;;;;5071009;28;20449;-55
2021/03/11 03:56:35;;;;;;;38.28;18.55;;;;;;;;;;5069288;28;20094;-57
2021/03/11 03:59:06;;;;;;;41.35;20.20;;;;;;;;;;5069353;28;20035;-56
2021/03/11 04:01:34;;;;;;;43.53;22.98;;;;;;;;;;5068638;28;20032;-53
2021/03/11 04:04:00;;;;;;;39.63;20.40;;;;;;;;;;5070459;28;20056;-55
2021/03/11 04:06:26;;;;;;;45.22;21.80;;;;;;;;;;5070975;28;20435;-57
2021/03/11 04:08:51;;;;;;;45.57;24.43;;;;;;;;;;5070369;28;20048;-54
2021/03/11 04:11:18;;;;;;;32.42;16.80;;;;;;;;;;5053090;28;20277;-57
2021/03/11 04:13:45;;;;;;;37.17;18.33;;;;;;;;;;5070795;28;20056;-58
2021/03/11 04:16:11;;;;;;;38.67;19.48;;;;;;;;;;5068297;28;20399;-57
2021/03/11 04:18:36;;;;;;;43.43;20.13;;;;;;;;;;5070875;28;20034;-53
2021/03/11 04:21:02;;;;;;;46.10;22.03;;;;;;;;;;5070375;28;20328;-51
2021/03/11 04:23:27;;;;;;;39.50;21.38;;;;;;;;;;5071258;28;20040;-55
2021/03/11 04:25:53;;;;;;;41.87;22.17;;;;;;;;;;5070666;28;20048;-55
2021/03/11 04:28:18;;;;;;;40.13;18.43;;;;;;;;;;5071217;28;20245;-54
2021/03/11 04:30:44;;;;;;;40.03;20.23;;;;;;;;;;5071401;28;20119;-56
2021/03/11 04:33:10;;;;;;;38.63;19.07;;;;;;;;;;5052440;28;20034;-53
2021/03/11 04:35:35;;;;;;;40.10;19.70;;;;;;;;;;5070980;28;20030;-55
2021/03/11 04:38:03;;;;;;;39.20;18.90;;;;;;;;;;5068989;28;20036;-55
2021/03/11 04:40:28;;;;;;;41.25;21.73;;;;;;;;;;5069752;28;20032;-54
2021/03/11 04:42:54;;;;;;;33.40;15.67;;;;;;;;;;5070678;28;20109;-57
2021/03/11 04:45:19;;;;;;;35.83;16.50;;;;;;;;;;5071864;28;20059;-57
2021/03/11 04:47:46;;;;;;;29.00;14.87;;;;;;;;;;5075112;28;20108;-56
2021/03/11 04:50:12;;;;;;;35.45;18.75;;;;;;;;;;5073982;28;20056;-57
2021/03/11 04:52:37;;;;;;;32.33;16.33;;;;;;;;;;5075216;28;20526;-55
2021/03/11 04:55:04;;;;;;;30.30;15.03;;;;;;;;;;5074406;28;20487;-57
2021/03/11 04:57:30;;;;;;;30.80;16.23;;;;;;;;;;5074913;28;20036;-57
2021/03/11 04:59:58;;;;;;;28.38;15.25;;;;;;;;;;5074137;28;20036;-57
2021/03/11 05:02:29;;;;;;;34.45;16.65;;;;;;;;;;5074688;28;20067;-56
2021/03/11 05:04:55;;;;;;;33.38;17.02;;;;;;;;;;5055957;28;20428;-56
2021/03/11 05:07:20;;;;;;;28.77;15.20;;;;;;;;;;5056999;28;20107;-54
2021/03/11 05:09:46;;;;;;;28.67;15.30;;;;;;;;;;5074371;28;20055;-54
2021/03/11 05:12:11;;;;;;;26.50;14.37;;;;;;;;;;5073704;28;20491;-54
2021/03/11 05:14:36;;;;;;;26.60;14.03;;;;;;;;;;5074700;28;20139;-55
2021/03/11 05:17:02;;;;;;;26.03;14.80;;;;;;;;;;5073623;28;20060;-55
2021/03/11 05:19:27;;;;;;;24.67;13.10;;;;;;;;;;5056534;28;20028;-56
2021/03/11 05:21:52;;;;;;;21.50;13.50;;;;;;;;;;5055609;28;20063;-57
2021/03/11 05:24:18;;;;;;;31.67;15.67;;;;;;;;;;5074149;28;20029;-56
2021/03/11 05:26:43;;;;;;;29.33;15.57;;;;;;;;;;5074308;28;20040;-57
2021/03/11 05:29:08;;;;;;;33.20;17.27;;;;;;;;;;5074120;28;20106;-56
2021/03/11 05:31:34;;;;;;;36.87;17.47;;;;;;;;;;5074292;28;20040;-56
2021/03/11 05:33:59;;;;;;;31.20;16.93;;;;;;;;;;5073387;28;20098;-55
2021/03/11 05:36:25;;;;;;;28.63;12.80;;;;;;;;;;5074148;28;20036;-56
2021/03/11 05:38:51;;;;;;;31.83;16.67;;;;;;;;;;5074009;28;20073;-56
2021/03/11 05:41:16;;;;;;;35.20;18.23;;;;;;;;;;5055249;28;20127;-56
2021/03/11 05:43:42;;;;;;;26.30;16.30;;;;;;;;;;5056052;28;20117;-55
2021/03/11 05:46:09;;;;;;;32.78;16.92;;;;;;;;;;5055003;28;20048;-56
2021/03/11 05:48:34;;;;;;;;;;;;;;;;;;5055915;28;20541;-57
2021/03/11 05:51:00;;;;;;;29.80;16.63;;;;;;;;;;5072954;28;19909;-56
2021/03/11 05:53:26;;;;;;;36.00;17.52;;;;;;;;;;5073697;28;20107;-56
2021/03/11 05:55:51;;;;;;;37.23;18.10;;;;;;;;;;5073626;28;20494;-55
2021/03/11 05:58:20;;;;;;;33.87;15.67;;;;;;;;;;5071941;28;20127;-55
2021/03/11 06:00:45;;;;;;;24.92;13.90;;;;;;;;;;5073250;28;20277;-56
2021/03/11 06:03:11;;;;;;;29.00;14.20;;;;;;;;;;5072794;28;20058;-57
2021/03/11 06:05:36;;;;;;;33.87;15.37;;;;;;;;;;5073527;28;20037;-57
2021/03/11 06:08:02;;;;;;;27.43;13.17;;;;;;;;;;5054893;28;20029;-56
2021/03/11 06:10:28;;;;;;;24.87;12.83;;;;;;;;;;5039084;28;20696;-53
2021/03/11 06:12:53;;;;;;;23.63;11.88;;;;;;;;;;5073803;28;20016;-56
2021/03/11 06:15:24;;;;;;;25.37;12.60;;;;;;;;;;5070598;28;20055;-55
2021/03/11 06:17:49;;;;;;;22.92;11.43;;;;;;;;;;5063537;28;20072;-53
2021/03/11 06:20:15;;;;;;;19.73;9.63;;;;;;;;;;5065128;28;20068;-55
2021/03/11 06:22:40;;;;;;;28.87;9.80;;;;;;;;;;5068876;28;20028;-56
2021/03/11 06:25:06;;;;;;;21.27;11.07;;;;;;;;;;5071860;28;20054;-54
2021/03/11 06:27:31;;;;;;;14.20;7.32;;;;;;;;;;5067750;28;20056;-57
2021/03/11 06:29:57;;;;;;;18.08;8.52;;;;;;;;;;5073265;28;20040;-56
2021/03/11 06:32:23;;;;;;;17.47;8.90;;;;;;;;;;5059951;28;20063;-56
2021/03/11 06:34:49;;;;;;;20.60;10.13;;;;;;;;;;5061663;28;20096;-56
2021/03/11 06:37:15;;;;;;;23.97;9.40;;;;;;;;;;5063728;28;20186;-54
2021/03/11 06:39:41;;;;;;;16.88;7.78;;;;;;;;;;5055023;28;20036;-55
2021/03/11 06:42:08;;;;;;;13.98;7.28;;;;;;;;;;5065867;28;20040;-53
2021/03/11 06:44:39;;;;;;;17.10;7.18;;;;;;;;;;5072779;28;20058;-53
2021/03/11 06:47:12;;;;;;;12.98;6.95;;;;;;;;;;5065756;28;20016;-54
2021/03/11 06:49:56;;;;;;;19.45;7.50;;;;;;;;;;5054161;28;20059;-57
2021/03/11 06:52:21;;;;;;;19.50;8.10;;;;;;;;;;5065753;28;20504;-54
2021/03/11 06:54:49;;;;;;;11.87;6.17;;;;;;;;;;5072213;28;20028;-55
2021/03/11 06:57:23;;;;;;;14.73;6.93;;;;;;;;;;5065485;28;20100;-55
2021/03/11 06:59:48;;;;;;;14.57;6.65;;;;;;;;;;5054215;28;20146;-55
2021/03/11 07:02:13;;;;;;;13.10;5.50;;;;;;;;;;5065761;28;20040;-54
2021/03/11 07:04:39;;;;;;;19.17;6.00;;;;;;;;;;5054217;28;20032;-56
2021/03/11 07:07:15;;;;;;;12.93;5.17;;;;;;;;;;5065376;28;20078;-56
2021/03/11 07:09:40;;;;;;;13.10;4.72;;;;;;;;;;5072355;28;20031;-54
2021/03/11 07:12:05;;;;;;;16.27;5.10;;;;;;;;;;5068438;28;20024;-56
2021/03/11 07:14:31;;;;;;;11.37;4.83;;;;;;;;;;5072437;28;20057;-58
2021/03/11 07:17:15;;;;;;;17.63;4.20;;;;;;;;;;5065877;28;20480;-57
2021/03/11 07:19:41;;;;;;;17.27;5.20;;;;;;;;;;5071662;28;20029;-60
2021/03/11 07:22:15;;;;;;;9.20;3.50;;;;;;;;;;5065079;28;20025;-56
2021/03/11 07:24:40;;;;;;;12.40;3.28;;;;;;;;;;5071857;28;20474;-57
2021/03/11 07:27:07;;;;;;;15.33;3.43;;;;;;;;;;5027314;28;20112;-57
2021/03/11 07:29:32;;;;;;;20.25;4.20;;;;;;;;;;5060670;28;20477;-56
2021/03/11 07:31:58;;;;;;;15.50;4.40;;;;;;;;;;5061144;28;20035;-56
2021/03/11 07:34:28;;;;;;;19.75;3.83;;;;;;;;;;5043956;28;20620;-57
2021/03/11 07:36:56;;;;;;;10.57;3.00;;;;;;;;;;5057551;28;20040;-54
2021/03/11 07:39:23;;;;;;;19.10;4.00;;;;;;;;;;5050814;28;20595;-55
2021/03/11 07:41:48;;;;;;;;;;;;;;;;;;5051751;28;20063;-55
2021/03/11 07:44:14;;;;;;;12.33;3.53;;;;;;;;;;5050006;28;19908;-57
2021/03/11 07:46:39;;;;;;;15.23;2.67;;;;;;;;;;5033555;28;20030;-57
2021/03/11 07:49:06;;;;;;;15.43;2.20;;;;;;;;;;5043907;28;20083;-57
2021/03/11 07:51:31;;;;;;;30.85;4.15;;;;;;;;;;5071010;28;20032;-56
2021/03/11 07:53:57;;;;;;;16.33;3.00;;;;;;;;;;5071729;28;20102;-57
2021/03/11 07:56:22;;;;;;;18.90;3.58;;;;;;;;;;5071009;28;20064;-57
2021/03/11 07:58:47;;;;;;;15.20;2.70;;;;;;;;;;5071157;28;20021;-56
2021/03/11 08:01:14;;;;;;;15.03;2.33;;;;;;;;;;5063440;28;20048;-54
2021/03/11 08:03:43;;;;;;;12.35;3.97;;;;;;;;;;5069329;28;20446;-63
2021/03/11 08:06:29;;;;;;;21.30;3.57;;;;;;;;;;5066263;28;20036;-54
2021/03/11 08:08:55;;;;;;;16.97;2.87;;;;;;;;;;5073363;28;20720;-56
2021/03/11 08:11:32;;;;;;;15.80;2.92;;;;;;;;;;5076662;28;20265;-58
2021/03/11 08:14:30;;;;;;;18.40;2.97;;;;;;;;;;5071478;28;20032;-56
2021/03/11 08:17:15;;;;;;;21.65;3.53;;;;;;;;;;5037059;28;20292;-56
2021/03/11 08:19:41;;;;;;;18.00;3.73;;;;;;;;;;5070518;28;20029;-57
2021/03/11 08:22:06;;;;;;;28.20;4.63;;;;;;;;;;5075389;28;20602;-55
2021/03/11 08:24:38;;;;;;;15.53;3.30;;;;;;;;;;5075018;28;20405;-59
2021/03/11 08:27:04;;;;;;;17.50;3.97;;;;;;;;;;5075863;28;20029;-57
2021/03/11 08:29:29;;;;;;;;;;;;;;;;;;5074743;28;20313;-57
2021/03/11 08:31:55;;;;;;;17.80;4.17;;;;;;;;;;5076324;28;19909;-55
2021/03/11 08:34:32;;;;;;;23.23;3.83;;;;;;;;;;5073842;28;20029;-56
2021/03/11 08:37:10;;;;;;;18.73;3.07;;;;;;;;;;5074097;28;20040;-56
2021/03/11 08:39:35;;;;;;;29.40;4.10;;;;;;;;;;5074100;28;20280;-56
2021/03/11 08:42:21;;;;;;;16.25;3.35;;;;;;;;;;5076462;28;20289;-56
2021/03/11 08:44:46;;;;;;;19.73;3.47;;;;;;;;;;5076175;28;20125;-55
2021/03/11 08:47:12;;;;;;;20.73;4.27;;;;;;;;;;5076218;28;20782;-56
2021/03/11 08:49:38;;;;;;;18.15;3.22;;;;;;;;;;5075814;28;20432;-56
2021/03/11 08:52:04;;;;;;;32.55;5.30;;;;;;;;;;5056979;28;20051;-52
2021/03/11 08:54:30;;;;;;;24.27;4.35;;;;;;;;;;5074168;28;20029;-55
2021/03/11 08:56:55;;;;;;;25.37;5.60;;;;;;;;;;5074736;28;20112;-53
2021/03/11 08:59:21;;;;;;;29.50;4.20;;;;;;;;;;5056304;28;20016;-55
2021/03/11 09:01:51;;;;;;;21.00;4.93;;;;;;;;;;5022937;28;20360;-56
2021/03/11 09:04:16;;;;;;;26.37;4.97;;;;;;;;;;5055690;28;20033;-54
2021/03/11 09:06:51;;;;;;;27.47;5.23;;;;;;;;;;5074520;28;20378;-55
2021/03/11 09:09:17;;;;;;;31.80;5.90;;;;;;;;;;5055680;28;20025;-55
2021/03/11 09:11:55;;;;;;;26.73;4.05;;;;;;;;;;5074863;28;20258;-55
2021/03/11 09:14:24;;;;;;;27.47;5.03;;;;;;;;;;5073655;28;20040;-56
2021/03/11 09:16:49;;;;;;;32.80;5.37;;;;;;;;;;5074021;28;20372;-55
2021/03/11 09:19:15;;;;;;;29.00;5.13;;;;;;;;;;5073937;28;20276;-53
2021/03/11 09:21:40;;;;;;;34.95;5.13;;;;;;;;;;5074715;28;20076;-56
2021/03/11 09:24:14;;;;;;;28.07;4.57;;;;;;;;;;5074323;28;20056;-57
2021/03/11 09:26:40;;;;;;;27.93;4.80;;;;;;;;;;5056095;28;20500;-52
2021/03/11 09:29:05;;;;;;;26.27;4.33;;;;;;;;;;5055855;28;20356;-55
2021/03/11 09:31:30;;;;;;;26.73;4.43;;;;;;;;;;5071996;28;20036;-56
2021/03/11 09:33:56;;;;;;;33.20;5.57;;;;;;;;;;5073810;28;20089;-56
2021/03/11 09:36:22;;;;;;;35.53;5.57;;;;;;;;;;5073745;28;20496;-55
2021/03/11 09:38:48;;;;;;;27.00;5.57;;;;;;;;;;5074146;28;20130;-56
2021/03/11 09:41:14;;;;;;;;;;;;;;;;;;5076313;28;20397;-56
2021/03/11 09:43:40;;;;;;;29.07;5.53;;;;;;;;;;5074874;28;19909;-55
2021/03/11 09:46:12;;;;;;;31.85;5.60;;;;;;;;;;5073500;28;20037;-56
2021/03/11 09:48:51;;;;;;;23.27;4.90;;;;;;;;;;5073101;28;20381;-55
2021/03/11 09:51:18;;;;;;;26.67;5.00;;;;;;;;;;5034735;28;20324;-55
2021/03/11 09:53:48;;;;;;;28.63;4.73;;;;;;;;;;5035225;28;20265;-57
2021/03/11 09:56:28;;;;;;;22.10;5.07;;;;;;;;;;5053003;28;20258;-54
2021/03/11 09:58:57;;;;;;;28.17;4.40;;;;;;;;;;5051790;28;20741;-57
2021/03/11 10:01:33;;;;;;;23.93;5.33;;;;;;;;;;5049141;28;20387;-56
2021/03/11 10:03:59;;;;;;;38.30;5.90;;;;;;;;;;5053014;28;20250;-58
2021/03/11 10:06:25;;;;;;;28.23;4.40;;;;;;;;;;5052895;28;20282;-55
2021/03/11 10:08:55;;;;;;;33.65;7.63;;;;;;;;;;5053760;28;20033;-57
2021/03/11 10:11:22;;;;;;;34.73;5.10;;;;;;;;;;5035225;28;20036;-56
2021/03/11 10:13:52;;;;;;;28.83;5.23;;;;;;;;;;5015617;28;20747;-56
2021/03/11 10:16:37;;;;;;;20.53;4.53;;;;;;;;;;5032199;28;20357;-55
2021/03/11 10:19:07;;;;;;;24.30;4.93;;;;;;;;;;5033527;28;20255;-56
2021/03/11 10:21:44;;;;;;;25.93;5.47;;;;;;;;;;5014849;28;20294;-54
2021/03/11 10:24:10;;;;;;;31.80;5.73;;;;;;;;;;5032138;28;20346;-57
2021/03/11 10:26:36;;;;;;;36.72;5.93;;;;;;;;;;5032455;28;20588;-57
2021/03/11 10:29:06;;;;;;;29.80;7.73;;;;;;;;;;5032751;28;20038;-56
2021/03/11 10:31:31;;;;;;;36.47;5.10;;;;;;;;;;5032597;28;20060;-55
2021/03/11 10:34:04;;;;;;;16.53;4.37;;;;;;;;;;5032259;28;20747;-55
2021/03/11 10:36:29;;;;;;;30.67;6.50;;;;;;;;;;5032190;28;20021;-53
2021/03/11 10:39:07;;;;;;;29.23;4.80;;;;;;;;;;5033700;28;20324;-54
2021/03/11 10:41:32;;;;;;;39.00;5.97;;;;;;;;;;5032554;28;20121;-55
2021/03/11 10:44:11;;;;;;;29.70;5.77;;;;;;;;;;5031893;28;20296;-55
2021/03/11 10:46:36;;;;;;;39.23;5.67;;;;;;;;;;5032842;28;20087;-57
2021/03/11 10:49:02;;;;;;;32.47;5.00;;;;;;;;;;5034739;28;20662;-57
2021/03/11 10:51:30;;;;;;;33.35;5.45;;;;;;;;;;5052040;28;20037;-57
2021/03/11 10:53:58;;;;;;;30.13;7.90;;;;;;;;;;5035030;28;20201;-56
2021/03/11 10:56:23;;;;;;;36.73;7.10;;;;;;;;;;5051938;28;20346;-56
2021/03/11 10:58:58;;;;;;;31.83;5.73;;;;;;;;;;5034779;28;20674;-57
2021/03/11 11:01:27;;;;;;;29.17;5.33;;;;;;;;;;5051688;28;20080;-58
2021/03/11 11:03:53;;;;;;;33.27;5.27;;;;;;;;;;5052568;28;20344;-56
2021/03/11 11:06:20;;;;;;;30.67;4.90;;;;;;;;;;5034416;28;20301;-57
2021/03/11 11:08:46;;;;;;;31.60;5.33;;;;;;;;;;5034154;28;20048;-57
2021/03/11 11:11:13;;;;;;;26.90;5.93;;;;;;;;;;5052593;28;20742;-59
2021/03/11 11:13:38;;;;;;;32.47;6.13;;;;;;;;;;5059659;28;20059;-57
2021/03/11 11:16:04;;;;;;;31.80;5.47;;;;;;;;;;5071721;28;20233;-57
2021/03/11 11:18:29;;;;;;;20.65;4.35;;;;;;;;;;5071540;28;20040;-56
2021/03/11 11:20:54;;;;;;;32.73;4.87;;;;;;;;;;5071831;28;20480;-56
2021/03/11 11:23:20;;;;;;;23.13;4.43;;;;;;;;;;5072088;28;20460;-58
2021/03/11 11:25:45;;;;;;;25.13;4.43;;;;;;;;;;5053929;28;20531;-56
2021/03/11 11:28:11;;;;;;;24.87;4.73;;;;;;;;;;5071911;28;20036;-57
2021/03/11 11:30:36;;;;;;;28.63;4.43;;;;;;;;;;5071198;28;20111;-56
2021/03/11 11:33:02;;;;;;;23.50;4.63;;;;;;;;;;5072710;28;20499;-57
2021/03/11 11:35:27;;;;;;;18.03;4.00;;;;;;;;;;5054056;28;20043;-56
2021/03/11 11:37:52;;;;;;;20.63;5.53;;;;;;;;;;5056119;28;20425;-56
2021/03/11 11:40:19;;;;;;;25.50;5.40;;;;;;;;;;5071892;28;20047;-57
2021/03/11 11:42:44;;;;;;;25.83;5.45;;;;;;;;;;5073026;28;20052;-58
2021/03/11 11:45:10;;;;;;;31.83;5.13;;;;;;;;;;5054414;28;20421;-57
2021/03/11 11:47:36;;;;;;;30.67;5.30;;;;;;;;;;5037248;28;20020;-57
2021/03/11 11:50:02;;;;;;;30.75;5.95;;;;;;;;;;5073151;28;20481;-58
2021/03/11 11:52:27;;;;;;;28.23;6.60;;;;;;;;;;5054468;28;20040;-56
2021/03/11 11:54:53;;;;;;;16.23;3.87;;;;;;;;;;5054329;28;20116;-57
2021/03/11 11:57:18;;;;;;;26.53;4.00;;;;;;;;;;5073393;28;20036;-58
2021/03/11 11:59:43;;;;;;;20.23;3.40;;;;;;;;;;5037888;28;20021;-57
2021/03/11 12:02:09;;;;;;;18.50;4.60;;;;;;;;;;5056559;28;20056;-58
2021/03/11 12:04:35;;;;;;;19.25;3.97;;;;;;;;;;5072009;28;20052;-58
2021/03/11 12:07:01;;;;;;;23.42;5.05;;;;;;;;;;5054742;28;20024;-58
2021/03/11 12:09:27;;;;;;;23.02;4.63;;;;;;;;;;5071694;28;20029;-58
2021/03/11 12:11:52;;;;;;;40.92;7.07;;;;;;;;;;5071193;28;20033;-56
2021/03/11 12:14:17;;;;;;;23.57;4.30;;;;;;;;;;5070804;28;20036;-56
2021/03/11 12:16:43;;;;;;;23.23;5.27;;;;;;;;;;5071419;28;20481;-57
2021/03/11 12:19:09;;;;;;;24.20;4.63;;;;;;;;;;5071649;28;20043;-58
2021/03/11 12:21:34;;;;;;;22.60;3.63;;;;;;;;;;5053403;28;20466;-59
2021/03/11 12:24:01;;;;;;;26.63;4.63;;;;;;;;;;5054126;28;20037;-57
2021/03/11 12:26:26;;;;;;;31.90;4.67;;;;;;;;;;5071122;28;20031;-58
2021/03/11 12:28:52;;;;;;;17.57;3.73;;;;;;;;;;5053138;28;20273;-58
2021/03/11 12:31:18;;;;;;;22.55;3.58;;;;;;;;;;5053740;28;20040;-56
2021/03/11 12:33:43;;;;;;;24.87;3.80;;;;;;;;;;5073831;28;20032;-60
2021/03/11 12:36:10;;;;;;;27.20;4.85;;;;;;;;;;5054951;28;20127;-59
2021/03/11 12:38:36;;;;;;;21.17;5.07;;;;;;;;;;5053923;28;20055;-58
2021/03/11 12:41:02;;;;;;;25.83;5.55;;;;;;;;;;5037922;28;20641;-58
2021/03/11 12:43:29;;;;;;;27.63;5.67;;;;;;;;;;5072455;28;20410;-57
2021/03/11 12:45:54;;;;;;;21.53;4.10;;;;;;;;;;5075420;28;20283;-61
2021/03/11 12:48:19;;;;;;;25.63;5.70;;;;;;;;;;5073688;28;20033;-57
2021/03/11 12:50:49;;;;;;;28.07;4.10;;;;;;;;;;5072463;28;20045;-58
2021/03/11 12:53:17;;;;;;;32.33;4.83;;;;;;;;;;5054723;28;20453;-58
2021/03/11 12:55:43;;;;;;;21.90;3.03;;;;;;;;;;5070903;28;20272;-58
2021/03/11 12:58:08;;;;;;;19.13;5.30;;;;;;;;;;5069338;28;20948;-57
2021/03/11 13:00:34;;;;;;;19.88;3.40;;;;;;;;;;5068710;28;20043;-58
2021/03/11 13:02:59;;;;;;;18.37;4.10;;;;;;;;;;5069732;28;20036;-57
2021/03/11 13:05:24;;;;;;;25.47;6.43;;;;;;;;;;5053031;28;20032;-56
2021/03/11 13:07:50;;;;;;;13.30;2.90;;;;;;;;;;5055185;28;20043;-57
2021/03/11 13:10:15;;;;;;;18.85;3.25;;;;;;;;;;5056404;28;20043;-56
2021/03/11 13:12:42;;;;;;;14.80;2.72;;;;;;;;;;5073965;28;20417;-55
2021/03/11 13:15:08;;;;;;;28.27;5.90;;;;;;;;;;5055647;28;20066;-58
2021/03/11 13:17:34;;;;;;;21.85;3.85;;;;;;;;;;5055614;28;20089;-56
2021/03/11 13:19:59;;;;;;;16.87;3.30;;;;;;;;;;5074708;28;20032;-57
2021/03/11 13:22:24;;;;;;;24.93;4.40;;;;;;;;;;5056192;28;20024;-55
2021/03/11 13:24:50;;;;;;;27.57;6.50;;;;;;;;;;5055503;28;20082;-57
2021/03/11 13:27:15;;;;;;;23.60;5.43;;;;;;;;;;5056064;28;20613;-57
2021/03/11 13:29:41;;;;;;;16.60;3.63;;;;;;;;;;5055512;28;20096;-57
2021/03/11 13:32:07;;;;;;;21.35;3.53;;;;;;;;;;5039498;28;20261;-58
2021/03/11 13:34:32;;;;;;;20.60;4.15;;;;;;;;;;5038696;28;20448;-57
2021/03/11 13:36:58;;;;;;;30.17;6.88;;;;;;;;;;5056240;28;20051;-57
2021/03/11 13:39:23;;;;;;;22.20;5.00;;;;;;;;;;5056453;28;20025;-57
2021/03/11 13:41:49;;;;;;;12.80;2.70;;;;;;;;;;5054863;28;20048;-58
2021/03/11 13:44:14;;;;;;;16.73;3.23;;;;;;;;;;5023108;28;20059;-57
2021/03/11 13:46:40;;;;;;;15.27;2.90;;;;;;;;;;5039099;28;20128;-56
2021/03/11 13:49:06;;;;;;;15.83;3.93;;;;;;;;;;5056699;28;20288;-58
2021/03/11 13:51:32;;;;;;;22.30;3.87;;;;;;;;;;5072824;28;20749;-57
2021/03/11 13:53:57;;;;;;;23.83;3.20;;;;;;;;;;5039350;28;20036;-56
2021/03/11 13:56:23;;;;;;;22.57;5.20;;;;;;;;;;5073932;28;20389;-58
2021/03/11 13:58:49;;;;;;;29.33;8.50;;;;;;;;;;5073210;28;20074;-57
2021/03/11 14:01:17;;;;;;;31.90;5.82;;;;;;;;;;5073732;28;20058;-56
2021/03/11 14:03:42;;;;;;;27.53;7.97;;;;;;;;;;5072783;28;20032;-56
2021/03/11 14:06:08;;;;;;;21.23;7.22;;;;;;;;;;5073239;28;20327;-57
2021/03/11 14:08:33;;;;;;;20.73;5.27;;;;;;;;;;5039827;28;20036;-58
2021/03/11 14:10:59;;;;;;;29.77;6.80;;;;;;;;;;5075411;28;20448;-58
2021/03/11 14:13:25;;;;;;;31.75;8.35;;;;;;;;;;5057608;28;20107;-57
2021/03/11 14:15:50;;;;;;;29.92;8.60;;;;;;;;;;5056895;28;20444;-55
2021/03/11 14:18:16;;;;;;;19.57;4.40;;;;;;;;;;5073475;28;20036;-57
2021/03/11 14:20:41;;;;;;;15.17;3.87;;;;;;;;;;5073189;28;20040;-57
2021/03/11 14:23:06;;;;;;;24.63;6.13;;;;;;;;;;5073847;28;20040;-59
2021/03/11 14:25:32;;;;;;;31.23;8.10;;;;;;;;;;5056301;28;20123;-58